sensor_id;sensor_type;location;lat;lon;timestamp;pressure;altitude;pressure_sealevel;temperature;humidity
60817;BME280;51921;51.518;-3.188;2023-03-20T00:01:55;101438.15;;;7.32;84.54
60817;BME280;51921;51.518;-3.188;2023-03-20T00:04:20;101434.47;;;8.19;84.01
60817;BME280;51921;51.518;-3.188;2023-03-20T00:06:46;101430.96;;;7.83;85.03
60817;BME280;51921;51.518;-3.188;2023-03-20T00:09:11;101425.88;;;8.51;83.09
60817;BME280;51921;51.518;-3.188;2023-03-20T00:11:40;101429.02;;;9.02;80.92
60817;BME280;51921;51.518;-3.188;2023-03-20T00:14:04;101424.83;;;8.09;85.06
60817;BME280;51921;51.518;-3.188;2023-03-20T00:16:31;101425.65;;;9.24;81.37
60817;BME280;51921;51.518;-3.188;2023-03-20T00:18:53;101420.95;;;8.61;82.85
60817;BME280;51921;51.518;-3.188;2023-03-20T00:21:19;101414.75;;;7.96;84.88
60817;BME280;51921;51.518;-3.188;2023-03-20T00:23:44;101418.75;;;8.27;86.74
60817;BME280;51921;51.518;-3.188;2023-03-20T00:26:12;101422.74;;;8.56;85.12
60817;BME280;51921;51.518;-3.188;2023-03-20T00:28:38;101417.66;;;8.03;86.91
60817;BME280;51921;51.518;-3.188;2023-03-20T00:31:01;101422.62;;;7.94;89.99
60817;BME280;51921;51.518;-3.188;2023-03-20T00:33:26;101422.47;;;8.64;87.27
60817;BME280;51921;51.518;-3.188;2023-03-20T00:35:51;101419.05;;;8.58;86.20
60817;BME280;51921;51.518;-3.188;2023-03-20T00:38:17;101413.38;;;9.11;85.77
60817;BME280;51921;51.518;-3.188;2023-03-20T00:40:42;101409.07;;;7.48;89.96
60817;BME280;51921;51.518;-3.188;2023-03-20T00:43:10;101404.05;;;7.06;94.42
60817;BME280;51921;51.518;-3.188;2023-03-20T00:45:34;101403.50;;;8.03;89.71
60817;BME280;51921;51.518;-3.188;2023-03-20T00:47:59;101402.46;;;9.08;87.16
60817;BME280;51921;51.518;-3.188;2023-03-20T00:50:26;101401.51;;;9.74;84.97
60817;BME280;51921;51.518;-3.188;2023-03-20T00:52:50;101393.73;;;10.01;83.13
60817;BME280;51921;51.518;-3.188;2023-03-20T00:55:17;101396.57;;;11.12;77.47
60817;BME280;51921;51.518;-3.188;2023-03-20T00:57:43;101402.54;;;10.65;77.40
60817;BME280;51921;51.518;-3.188;2023-03-20T01:00:12;101405.76;;;9.15;83.62
60817;BME280;51921;51.518;-3.188;2023-03-20T01:02:32;101397.16;;;8.21;88.55
60817;BME280;51921;51.518;-3.188;2023-03-20T01:04:58;101390.21;;;7.67;92.91
60817;BME280;51921;51.518;-3.188;2023-03-20T01:07:23;101386.53;;;7.32;94.26
60817;BME280;51921;51.518;-3.188;2023-03-20T01:09:48;101385.42;;;7.91;94.26
60817;BME280;51921;51.518;-3.188;2023-03-20T01:12:14;101377.12;;;9.73;86.43
60817;BME280;51921;51.518;-3.188;2023-03-20T01:14:39;101377.64;;;9.13;86.23
60817;BME280;51921;51.518;-3.188;2023-03-20T01:17:05;101375.60;;;7.93;92.01
60817;BME280;51921;51.518;-3.188;2023-03-20T01:19:30;101374.22;;;6.79;96.38
60817;BME280;51921;51.518;-3.188;2023-03-20T01:21:56;101380.42;;;6.22;100.00
60817;BME280;51921;51.518;-3.188;2023-03-20T01:24:21;101379.71;;;7.42;98.17
60817;BME280;51921;51.518;-3.188;2023-03-20T01:26:47;101378.91;;;8.85;91.65
60817;BME280;51921;51.518;-3.188;2023-03-20T01:29:17;101375.17;;;6.70;99.73
60817;BME280;51921;51.518;-3.188;2023-03-20T01:31:37;101377.98;;;5.85;100.00
60817;BME280;51921;51.518;-3.188;2023-03-20T01:34:03;101376.62;;;4.86;100.00
60817;BME280;51921;51.518;-3.188;2023-03-20T01:36:29;101379.59;;;6.04;100.00
60817;BME280;51921;51.518;-3.188;2023-03-20T01:38:56;101375.90;;;6.85;100.00
60817;BME280;51921;51.518;-3.188;2023-03-20T01:41:20;101368.98;;;7.15;100.00
60817;BME280;51921;51.518;-3.188;2023-03-20T01:43:45;101368.35;;;8.27;99.63
60817;BME280;51921;51.518;-3.188;2023-03-20T01:46:16;101365.20;;;7.84;100.00
60817;BME280;51921;51.518;-3.188;2023-03-20T01:51:01;101362.23;;;8.57;97.06
60817;BME280;51921;51.518;-3.188;2023-03-20T01:53:28;101354.93;;;7.91;98.46
60817;BME280;51921;51.518;-3.188;2023-03-20T01:55:54;101350.19;;;8.55;94.64
60817;BME280;51921;51.518;-3.188;2023-03-20T01:58:21;101344.43;;;9.39;91.74
60817;BME280;51921;51.518;-3.188;2023-03-20T02:00:44;101342.14;;;9.43;90.98
60817;BME280;51921;51.518;-3.188;2023-03-20T02:03:09;101336.84;;;9.71;88.46
60817;BME280;51921;51.518;-3.188;2023-03-20T02:05:35;101330.87;;;9.73;87.14
60817;BME280;51921;51.518;-3.188;2023-03-20T02:08:10;101330.19;;;9.13;89.81
60817;BME280;51921;51.518;-3.188;2023-03-20T02:10:25;101326.61;;;9.59;88.36
60817;BME280;51921;51.518;-3.188;2023-03-20T02:12:51;101329.99;;;8.81;91.05
60817;BME280;51921;51.518;-3.188;2023-03-20T02:15:16;101326.99;;;9.89;87.48
60817;BME280;51921;51.518;-3.188;2023-03-20T02:17:42;101328.05;;;9.97;83.38
60817;BME280;51921;51.518;-3.188;2023-03-20T02:20:15;101321.89;;;9.93;87.36
60817;BME280;51921;51.518;-3.188;2023-03-20T02:22:48;101319.85;;;9.16;89.70
60817;BME280;51921;51.518;-3.188;2023-03-20T02:27:31;101308.99;;;9.65;88.46
60817;BME280;51921;51.518;-3.188;2023-03-20T02:30:14;101304.04;;;9.79;88.30
60817;BME280;51921;51.518;-3.188;2023-03-20T02:37:17;101300.33;;;8.80;94.41
60817;BME280;51921;51.518;-3.188;2023-03-20T02:39:46;101294.78;;;9.20;91.63
60817;BME280;51921;51.518;-3.188;2023-03-20T02:41:59;101301.74;;;7.82;97.76
60817;BME280;51921;51.518;-3.188;2023-03-20T02:44:27;101291.45;;;8.90;93.69
60817;BME280;51921;51.518;-3.188;2023-03-20T02:46:53;101290.99;;;8.88;93.97
60817;BME280;51921;51.518;-3.188;2023-03-20T02:49:18;101286.32;;;8.98;93.18
60817;BME280;51921;51.518;-3.188;2023-03-20T02:51:40;101282.65;;;9.42;92.11
60817;BME280;51921;51.518;-3.188;2023-03-20T02:54:07;101277.31;;;10.09;89.60
60817;BME280;51921;51.518;-3.188;2023-03-20T02:56:31;101276.94;;;10.74;84.22
60817;BME280;51921;51.518;-3.188;2023-03-20T02:59:01;101275.99;;;10.21;85.71
60817;BME280;51921;51.518;-3.188;2023-03-20T03:01:25;101275.89;;;9.05;90.45
60817;BME280;51921;51.518;-3.188;2023-03-20T03:03:48;101277.09;;;9.08;91.02
60817;BME280;51921;51.518;-3.188;2023-03-20T03:06:16;101273.61;;;9.51;89.23
60817;BME280;51921;51.518;-3.188;2023-03-20T03:08:38;101273.10;;;9.07;91.14
60817;BME280;51921;51.518;-3.188;2023-03-20T03:11:05;101275.20;;;10.41;87.14
60817;BME280;51921;51.518;-3.188;2023-03-20T03:13:30;101273.03;;;9.37;89.09
60817;BME280;51921;51.518;-3.188;2023-03-20T03:15:55;101270.60;;;9.66;88.40
60817;BME280;51921;51.518;-3.188;2023-03-20T03:18:20;101273.55;;;11.18;83.55
60817;BME280;51921;51.518;-3.188;2023-03-20T03:20:44;101268.68;;;10.95;83.91
60817;BME280;51921;51.518;-3.188;2023-03-20T03:23:17;101265.19;;;9.73;87.90
60817;BME280;51921;51.518;-3.188;2023-03-20T03:25:38;101264.04;;;9.95;86.31
60817;BME280;51921;51.518;-3.188;2023-03-20T03:28:03;101260.54;;;8.87;90.81
60817;BME280;51921;51.518;-3.188;2023-03-20T03:30:27;101262.29;;;9.69;88.91
60817;BME280;51921;51.518;-3.188;2023-03-20T03:33:02;101261.08;;;10.04;87.00
60817;BME280;51921;51.518;-3.188;2023-03-20T03:35:19;101254.23;;;11.03;83.16
60817;BME280;51921;51.518;-3.188;2023-03-20T03:37:48;101254.10;;;10.40;84.45
60817;BME280;51921;51.518;-3.188;2023-03-20T03:40:16;101248.83;;;11.74;80.74
60817;BME280;51921;51.518;-3.188;2023-03-20T03:42:36;101243.75;;;11.80;77.91
60817;BME280;51921;51.518;-3.188;2023-03-20T03:45:02;101243.79;;;9.46;85.42
60817;BME280;51921;51.518;-3.188;2023-03-20T03:47:30;101239.06;;;9.49;87.70
60817;BME280;51921;51.518;-3.188;2023-03-20T03:49:54;101238.84;;;10.62;85.02
60817;BME280;51921;51.518;-3.188;2023-03-20T03:52:18;101242.95;;;9.51;86.74
60817;BME280;51921;51.518;-3.188;2023-03-20T03:54:44;101241.56;;;9.16;88.28
60817;BME280;51921;51.518;-3.188;2023-03-20T03:57:07;101239.17;;;9.45;88.78
60817;BME280;51921;51.518;-3.188;2023-03-20T03:59:35;101237.03;;;10.01;86.51
60817;BME280;51921;51.518;-3.188;2023-03-20T04:01:57;101237.58;;;9.74;87.92
60817;BME280;51921;51.518;-3.188;2023-03-20T04:04:24;101231.81;;;9.45;88.44
60817;BME280;51921;51.518;-3.188;2023-03-20T04:06:48;101228.60;;;9.56;88.92
60817;BME280;51921;51.518;-3.188;2023-03-20T04:09:13;101231.87;;;10.13;87.44
60817;BME280;51921;51.518;-3.188;2023-03-20T04:11:39;101235.88;;;8.95;91.03
60817;BME280;51921;51.518;-3.188;2023-03-20T04:14:04;101230.01;;;9.70;89.79
60817;BME280;51921;51.518;-3.188;2023-03-20T04:16:30;101228.62;;;9.38;91.30
60817;BME280;51921;51.518;-3.188;2023-03-20T04:18:55;101229.33;;;9.36;92.66
60817;BME280;51921;51.518;-3.188;2023-03-20T04:21:21;101231.31;;;9.73;91.52
60817;BME280;51921;51.518;-3.188;2023-03-20T04:23:46;101232.67;;;9.16;94.23
60817;BME280;51921;51.518;-3.188;2023-03-20T04:26:12;101229.87;;;9.42;94.18
60817;BME280;51921;51.518;-3.188;2023-03-20T04:28:37;101231.70;;;10.03;92.06
60817;BME280;51921;51.518;-3.188;2023-03-20T04:31:03;101229.05;;;9.82;92.67
60817;BME280;51921;51.518;-3.188;2023-03-20T04:33:28;101230.40;;;11.15;87.55
60817;BME280;51921;51.518;-3.188;2023-03-20T04:35:54;101230.93;;;11.32;86.50
60817;BME280;51921;51.518;-3.188;2023-03-20T04:38:19;101230.57;;;11.33;87.38
60817;BME280;51921;51.518;-3.188;2023-03-20T04:40:44;101235.91;;;11.21;87.68
60817;BME280;51921;51.518;-3.188;2023-03-20T04:43:10;101233.14;;;10.53;87.94
60817;BME280;51921;51.518;-3.188;2023-03-20T04:45:35;101232.04;;;9.30;92.02
60817;BME280;51921;51.518;-3.188;2023-03-20T04:48:01;101231.98;;;10.21;90.51
60817;BME280;51921;51.518;-3.188;2023-03-20T04:50:26;101233.11;;;10.32;90.75
60817;BME280;51921;51.518;-3.188;2023-03-20T04:52:52;101231.81;;;9.89;91.95
60817;BME280;51921;51.518;-3.188;2023-03-20T04:55:17;101228.61;;;9.75;93.09
60817;BME280;51921;51.518;-3.188;2023-03-20T04:57:43;101225.30;;;9.32;95.09
60817;BME280;51921;51.518;-3.188;2023-03-20T05:00:09;101221.86;;;10.01;92.48
60817;BME280;51921;51.518;-3.188;2023-03-20T05:02:33;101219.05;;;8.76;97.12
60817;BME280;51921;51.518;-3.188;2023-03-20T05:04:59;101219.28;;;9.18;99.03
60817;BME280;51921;51.518;-3.188;2023-03-20T05:07:24;101216.70;;;9.64;99.19
60817;BME280;51921;51.518;-3.188;2023-03-20T05:09:50;101211.76;;;9.33;99.25
60817;BME280;51921;51.518;-3.188;2023-03-20T05:12:16;101212.92;;;8.31;100.00
60817;BME280;51921;51.518;-3.188;2023-03-20T05:14:41;101206.51;;;8.77;100.00
60817;BME280;51921;51.518;-3.188;2023-03-20T05:17:07;101208.87;;;8.29;100.00
60817;BME280;51921;51.518;-3.188;2023-03-20T05:19:32;101211.63;;;7.81;100.00
60817;BME280;51921;51.518;-3.188;2023-03-20T05:21:58;101210.70;;;8.13;100.00
60817;BME280;51921;51.518;-3.188;2023-03-20T05:24:23;101204.30;;;8.58;100.00
60817;BME280;51921;51.518;-3.188;2023-03-20T05:26:49;101209.96;;;8.05;100.00
60817;BME280;51921;51.518;-3.188;2023-03-20T05:29:14;101209.36;;;8.81;100.00
60817;BME280;51921;51.518;-3.188;2023-03-20T05:31:40;101215.19;;;7.81;100.00
60817;BME280;51921;51.518;-3.188;2023-03-20T05:34:05;101213.99;;;7.76;100.00
60817;BME280;51921;51.518;-3.188;2023-03-20T05:36:31;101211.87;;;7.78;100.00
60817;BME280;51921;51.518;-3.188;2023-03-20T05:38:56;101210.92;;;7.63;100.00
60817;BME280;51921;51.518;-3.188;2023-03-20T05:41:22;101206.00;;;6.84;100.00
60817;BME280;51921;51.518;-3.188;2023-03-20T05:43:47;101206.24;;;6.86;100.00
60817;BME280;51921;51.518;-3.188;2023-03-20T05:46:13;101197.76;;;7.10;100.00
60817;BME280;51921;51.518;-3.188;2023-03-20T05:48:38;101197.14;;;6.63;100.00
60817;BME280;51921;51.518;-3.188;2023-03-20T05:51:04;101194.18;;;6.91;100.00
60817;BME280;51921;51.518;-3.188;2023-03-20T05:53:29;101192.94;;;6.74;100.00
60817;BME280;51921;51.518;-3.188;2023-03-20T05:55:55;101193.82;;;6.98;100.00
60817;BME280;51921;51.518;-3.188;2023-03-20T05:58:20;101189.58;;;6.23;100.00
60817;BME280;51921;51.518;-3.188;2023-03-20T06:00:46;101192.28;;;7.14;100.00
60817;BME280;51921;51.518;-3.188;2023-03-20T06:03:11;101192.29;;;7.85;100.00
60817;BME280;51921;51.518;-3.188;2023-03-20T06:05:37;101190.34;;;7.75;100.00
60817;BME280;51921;51.518;-3.188;2023-03-20T06:08:03;101189.08;;;7.01;100.00
60817;BME280;51921;51.518;-3.188;2023-03-20T06:10:28;101187.20;;;7.15;100.00
60817;BME280;51921;51.518;-3.188;2023-03-20T06:12:53;101190.17;;;6.83;100.00
60817;BME280;51921;51.518;-3.188;2023-03-20T06:15:19;101188.07;;;7.14;100.00
60817;BME280;51921;51.518;-3.188;2023-03-20T06:17:44;101192.63;;;7.62;100.00
60817;BME280;51921;51.518;-3.188;2023-03-20T06:20:11;101192.57;;;7.66;100.00
60817;BME280;51921;51.518;-3.188;2023-03-20T06:22:35;101190.28;;;8.57;100.00
60817;BME280;51921;51.518;-3.188;2023-03-20T06:25:01;101192.21;;;7.50;100.00
60817;BME280;51921;51.518;-3.188;2023-03-20T06:27:26;101192.33;;;7.89;100.00
60817;BME280;51921;51.518;-3.188;2023-03-20T06:29:52;101195.80;;;8.28;100.00
60817;BME280;51921;51.518;-3.188;2023-03-20T06:32:17;101197.91;;;7.97;100.00
60817;BME280;51921;51.518;-3.188;2023-03-20T06:34:43;101193.83;;;7.38;100.00
60817;BME280;51921;51.518;-3.188;2023-03-20T06:37:08;101191.59;;;8.31;100.00
60817;BME280;51921;51.518;-3.188;2023-03-20T06:39:34;101187.27;;;8.73;100.00
60817;BME280;51921;51.518;-3.188;2023-03-20T06:41:59;101191.63;;;8.11;100.00
60817;BME280;51921;51.518;-3.188;2023-03-20T06:44:25;101187.93;;;8.34;100.00
60817;BME280;51921;51.518;-3.188;2023-03-20T06:46:50;101190.48;;;8.12;100.00
60817;BME280;51921;51.518;-3.188;2023-03-20T06:49:16;101191.24;;;7.97;100.00
60817;BME280;51921;51.518;-3.188;2023-03-20T06:51:41;101193.11;;;8.43;100.00
60817;BME280;51921;51.518;-3.188;2023-03-20T06:54:07;101194.25;;;8.27;100.00
60817;BME280;51921;51.518;-3.188;2023-03-20T06:56:32;101199.85;;;7.80;100.00
60817;BME280;51921;51.518;-3.188;2023-03-20T06:58:58;101197.43;;;8.00;100.00
60817;BME280;51921;51.518;-3.188;2023-03-20T07:01:24;101197.32;;;8.05;100.00
60817;BME280;51921;51.518;-3.188;2023-03-20T07:03:49;101197.41;;;7.71;100.00
60817;BME280;51921;51.518;-3.188;2023-03-20T07:06:14;101198.31;;;7.51;100.00
60817;BME280;51921;51.518;-3.188;2023-03-20T07:08:40;101191.38;;;7.36;100.00
60817;BME280;51921;51.518;-3.188;2023-03-20T07:11:06;101196.70;;;8.53;100.00
60817;BME280;51921;51.518;-3.188;2023-03-20T07:13:31;101192.28;;;8.32;100.00
60817;BME280;51921;51.518;-3.188;2023-03-20T07:15:56;101190.15;;;9.12;100.00
60817;BME280;51921;51.518;-3.188;2023-03-20T07:18:22;101191.74;;;8.71;100.00
60817;BME280;51921;51.518;-3.188;2023-03-20T07:20:47;101189.59;;;7.83;100.00
60817;BME280;51921;51.518;-3.188;2023-03-20T07:23:13;101190.08;;;7.45;100.00
60817;BME280;51921;51.518;-3.188;2023-03-20T07:25:38;101190.85;;;7.98;100.00
60817;BME280;51921;51.518;-3.188;2023-03-20T07:28:04;101192.07;;;8.98;100.00
60817;BME280;51921;51.518;-3.188;2023-03-20T07:30:29;101199.83;;;8.23;100.00
60817;BME280;51921;51.518;-3.188;2023-03-20T07:32:55;101197.08;;;8.83;100.00
60817;BME280;51921;51.518;-3.188;2023-03-20T07:35:20;101197.55;;;7.95;100.00
60817;BME280;51921;51.518;-3.188;2023-03-20T07:37:46;101200.69;;;7.80;100.00
60817;BME280;51921;51.518;-3.188;2023-03-20T07:40:12;101208.12;;;8.69;100.00
60817;BME280;51921;51.518;-3.188;2023-03-20T07:42:37;101205.93;;;8.56;100.00
60817;BME280;51921;51.518;-3.188;2023-03-20T07:45:03;101203.81;;;8.29;100.00
60817;BME280;51921;51.518;-3.188;2023-03-20T07:47:28;101212.86;;;8.22;100.00
60817;BME280;51921;51.518;-3.188;2023-03-20T07:49:53;101220.31;;;7.93;100.00
60817;BME280;51921;51.518;-3.188;2023-03-20T07:52:20;101219.26;;;7.75;100.00
60817;BME280;51921;51.518;-3.188;2023-03-20T07:54:44;101221.71;;;7.62;100.00
60817;BME280;51921;51.518;-3.188;2023-03-20T07:57:09;101220.98;;;8.37;100.00
60817;BME280;51921;51.518;-3.188;2023-03-20T07:59:35;101226.55;;;7.71;100.00
60817;BME280;51921;51.518;-3.188;2023-03-20T08:02:00;101221.57;;;8.47;100.00
60817;BME280;51921;51.518;-3.188;2023-03-20T08:04:27;101218.84;;;8.85;100.00
60817;BME280;51921;51.518;-3.188;2023-03-20T08:06:51;101219.46;;;8.77;100.00
60817;BME280;51921;51.518;-3.188;2023-03-20T08:09:17;101222.92;;;8.79;100.00
60817;BME280;51921;51.518;-3.188;2023-03-20T08:11:42;101227.18;;;8.45;100.00
60817;BME280;51921;51.518;-3.188;2023-03-20T08:14:08;101229.07;;;8.24;100.00
60817;BME280;51921;51.518;-3.188;2023-03-20T08:16:33;101228.97;;;8.75;100.00
60817;BME280;51921;51.518;-3.188;2023-03-20T08:18:59;101229.33;;;8.77;100.00
60817;BME280;51921;51.518;-3.188;2023-03-20T08:21:24;101227.89;;;9.50;100.00
60817;BME280;51921;51.518;-3.188;2023-03-20T08:23:50;101231.68;;;8.03;100.00
60817;BME280;51921;51.518;-3.188;2023-03-20T08:26:15;101235.16;;;7.86;100.00
60817;BME280;51921;51.518;-3.188;2023-03-20T08:28:41;101232.61;;;8.19;100.00
60817;BME280;51921;51.518;-3.188;2023-03-20T08:31:07;101230.94;;;8.02;100.00
60817;BME280;51921;51.518;-3.188;2023-03-20T08:33:32;101237.02;;;8.04;100.00
60817;BME280;51921;51.518;-3.188;2023-03-20T08:35:58;101225.42;;;8.86;100.00
60817;BME280;51921;51.518;-3.188;2023-03-20T08:38:23;101220.82;;;9.28;100.00
60817;BME280;51921;51.518;-3.188;2023-03-20T08:40:48;101227.33;;;8.72;100.00
60817;BME280;51921;51.518;-3.188;2023-03-20T08:43:14;101224.42;;;9.31;100.00
60817;BME280;51921;51.518;-3.188;2023-03-20T08:45:39;101227.04;;;9.19;100.00
60817;BME280;51921;51.518;-3.188;2023-03-20T08:48:04;101226.31;;;8.90;100.00
60817;BME280;51921;51.518;-3.188;2023-03-20T08:50:32;101233.90;;;8.33;100.00
60817;BME280;51921;51.518;-3.188;2023-03-20T08:52:55;101239.64;;;9.13;100.00
60817;BME280;51921;51.518;-3.188;2023-03-20T08:55:21;101245.22;;;8.94;100.00
60817;BME280;51921;51.518;-3.188;2023-03-20T08:57:46;101242.46;;;9.89;100.00
60817;BME280;51921;51.518;-3.188;2023-03-20T09:00:15;101241.28;;;9.36;100.00
60817;BME280;51921;51.518;-3.188;2023-03-20T09:02:37;101243.00;;;8.68;100.00
60817;BME280;51921;51.518;-3.188;2023-03-20T09:05:03;101241.72;;;8.87;100.00
60817;BME280;51921;51.518;-3.188;2023-03-20T09:07:28;101244.25;;;9.23;100.00
60817;BME280;51921;51.518;-3.188;2023-03-20T09:09:54;101246.13;;;9.56;100.00
60817;BME280;51921;51.518;-3.188;2023-03-20T09:12:19;101251.20;;;9.66;100.00
60817;BME280;51921;51.518;-3.188;2023-03-20T09:14:45;101251.32;;;9.68;100.00
60817;BME280;51921;51.518;-3.188;2023-03-20T09:17:10;101252.47;;;9.31;100.00
60817;BME280;51921;51.518;-3.188;2023-03-20T09:19:36;101253.22;;;9.42;100.00
60817;BME280;51921;51.518;-3.188;2023-03-20T09:22:01;101253.32;;;9.49;100.00
60817;BME280;51921;51.518;-3.188;2023-03-20T09:24:27;101254.72;;;9.33;100.00
60817;BME280;51921;51.518;-3.188;2023-03-20T09:26:52;101254.83;;;10.66;100.00
60817;BME280;51921;51.518;-3.188;2023-03-20T09:29:17;101250.58;;;9.34;100.00
60817;BME280;51921;51.518;-3.188;2023-03-20T09:31:43;101250.14;;;9.49;100.00
60817;BME280;51921;51.518;-3.188;2023-03-20T09:34:08;101251.59;;;9.58;100.00
60817;BME280;51921;51.518;-3.188;2023-03-20T09:36:34;101252.56;;;9.32;100.00
60817;BME280;51921;51.518;-3.188;2023-03-20T09:38:59;101255.74;;;9.71;100.00
60817;BME280;51921;51.518;-3.188;2023-03-20T09:41:25;101261.39;;;9.47;100.00
60817;BME280;51921;51.518;-3.188;2023-03-20T09:43:59;101267.13;;;8.80;100.00
60817;BME280;51921;51.518;-3.188;2023-03-20T09:46:27;101268.69;;;9.20;100.00
60817;BME280;51921;51.518;-3.188;2023-03-20T09:48:46;101267.77;;;9.23;100.00
60817;BME280;51921;51.518;-3.188;2023-03-20T09:51:14;101269.81;;;8.32;100.00
60817;BME280;51921;51.518;-3.188;2023-03-20T09:53:35;101266.76;;;9.34;100.00
60817;BME280;51921;51.518;-3.188;2023-03-20T09:55:58;101265.06;;;9.39;100.00
60817;BME280;51921;51.518;-3.188;2023-03-20T09:58:25;101265.88;;;9.19;100.00
60817;BME280;51921;51.518;-3.188;2023-03-20T10:00:48;101263.57;;;8.70;100.00
60817;BME280;51921;51.518;-3.188;2023-03-20T10:03:18;101261.55;;;9.65;100.00
60817;BME280;51921;51.518;-3.188;2023-03-20T10:05:44;101262.04;;;9.23;100.00
60817;BME280;51921;51.518;-3.188;2023-03-20T10:08:09;101261.09;;;9.62;100.00
60817;BME280;51921;51.518;-3.188;2023-03-20T10:10:38;101260.32;;;10.32;100.00
60817;BME280;51921;51.518;-3.188;2023-03-20T10:13:06;101262.60;;;9.06;100.00
60817;BME280;51921;51.518;-3.188;2023-03-20T10:15:34;101259.48;;;10.17;100.00
60817;BME280;51921;51.518;-3.188;2023-03-20T10:17:54;101259.46;;;9.85;100.00
60817;BME280;51921;51.518;-3.188;2023-03-20T10:20:19;101260.44;;;9.58;100.00
60817;BME280;51921;51.518;-3.188;2023-03-20T10:22:41;101260.66;;;8.33;100.00
60817;BME280;51921;51.518;-3.188;2023-03-20T10:25:06;101254.46;;;9.40;100.00
60817;BME280;51921;51.518;-3.188;2023-03-20T10:27:33;101260.14;;;8.89;100.00
60817;BME280;51921;51.518;-3.188;2023-03-20T10:30:06;101259.85;;;8.19;100.00
60817;BME280;51921;51.518;-3.188;2023-03-20T10:32:22;101262.00;;;8.28;100.00
60817;BME280;51921;51.518;-3.188;2023-03-20T10:34:52;101257.02;;;9.08;100.00
60817;BME280;51921;51.518;-3.188;2023-03-20T10:37:19;101259.23;;;9.81;100.00
60817;BME280;51921;51.518;-3.188;2023-03-20T10:39:46;101262.09;;;9.26;100.00
60817;BME280;51921;51.518;-3.188;2023-03-20T10:42:06;101260.99;;;9.47;100.00
60817;BME280;51921;51.518;-3.188;2023-03-20T10:44:36;101257.21;;;9.49;100.00
60817;BME280;51921;51.518;-3.188;2023-03-20T10:46:54;101252.50;;;10.03;100.00
60817;BME280;51921;51.518;-3.188;2023-03-20T10:49:20;101250.71;;;9.52;100.00
60817;BME280;51921;51.518;-3.188;2023-03-20T10:51:47;101245.83;;;10.39;100.00
60817;BME280;51921;51.518;-3.188;2023-03-20T10:54:20;101243.54;;;9.38;100.00
60817;BME280;51921;51.518;-3.188;2023-03-20T10:56:37;101243.20;;;9.11;100.00
60817;BME280;51921;51.518;-3.188;2023-03-20T10:59:04;101243.70;;;10.07;100.00
60817;BME280;51921;51.518;-3.188;2023-03-20T11:01:26;101249.14;;;9.59;100.00
60817;BME280;51921;51.518;-3.188;2023-03-20T11:03:50;101241.44;;;9.46;100.00
60817;BME280;51921;51.518;-3.188;2023-03-20T11:06:19;101240.35;;;10.14;100.00
60817;BME280;51921;51.518;-3.188;2023-03-20T11:08:46;101239.91;;;8.91;100.00
60817;BME280;51921;51.518;-3.188;2023-03-20T11:11:08;101236.43;;;10.10;100.00
60817;BME280;51921;51.518;-3.188;2023-03-20T11:13:34;101235.34;;;9.68;100.00
60817;BME280;51921;51.518;-3.188;2023-03-20T11:16:09;101232.01;;;9.85;100.00
60817;BME280;51921;51.518;-3.188;2023-03-20T11:18:24;101239.20;;;9.06;100.00
60817;BME280;51921;51.518;-3.188;2023-03-20T11:20:50;101244.31;;;8.98;100.00
60817;BME280;51921;51.518;-3.188;2023-03-20T11:23:16;101244.10;;;8.36;100.00
60817;BME280;51921;51.518;-3.188;2023-03-20T11:25:48;101242.41;;;8.98;100.00
60817;BME280;51921;51.518;-3.188;2023-03-20T11:30:30;101238.59;;;10.33;100.00
60817;BME280;51921;51.518;-3.188;2023-03-20T11:32:56;101229.83;;;10.16;100.00
60817;BME280;51921;51.518;-3.188;2023-03-20T11:35:27;101231.15;;;9.60;100.00
60817;BME280;51921;51.518;-3.188;2023-03-20T11:37:49;101233.15;;;10.18;100.00
60817;BME280;51921;51.518;-3.188;2023-03-20T11:40:15;101233.47;;;10.80;100.00
60817;BME280;51921;51.518;-3.188;2023-03-20T11:42:38;101235.48;;;10.27;100.00
60817;BME280;51921;51.518;-3.188;2023-03-20T11:45:05;101229.82;;;10.25;100.00
60817;BME280;51921;51.518;-3.188;2023-03-20T11:47:32;101222.85;;;11.03;100.00
60817;BME280;51921;51.518;-3.188;2023-03-20T11:49:56;101226.97;;;10.35;100.00
60817;BME280;51921;51.518;-3.188;2023-03-20T11:52:22;101219.55;;;10.15;100.00
60817;BME280;51921;51.518;-3.188;2023-03-20T11:54:47;101223.60;;;9.59;100.00
60817;BME280;51921;51.518;-3.188;2023-03-20T11:59:36;101227.93;;;10.02;100.00
60817;BME280;51921;51.518;-3.188;2023-03-20T12:02:11;101226.19;;;10.25;100.00
60817;BME280;51921;51.518;-3.188;2023-03-20T12:04:28;101221.69;;;10.71;100.00
60817;BME280;51921;51.518;-3.188;2023-03-20T12:06:55;101226.04;;;10.32;100.00
60817;BME280;51921;51.518;-3.188;2023-03-20T12:09:30;101224.52;;;10.22;100.00
60817;BME280;51921;51.518;-3.188;2023-03-20T12:11:47;101219.66;;;10.75;100.00
60817;BME280;51921;51.518;-3.188;2023-03-20T12:14:16;101217.42;;;10.87;100.00
60817;BME280;51921;51.518;-3.188;2023-03-20T12:16:35;101214.75;;;11.05;100.00
60817;BME280;51921;51.518;-3.188;2023-03-20T12:19:01;101213.00;;;11.40;100.00
60817;BME280;51921;51.518;-3.188;2023-03-20T12:21:29;101210.91;;;10.16;100.00
60817;BME280;51921;51.518;-3.188;2023-03-20T12:23:53;101211.08;;;10.54;100.00
60817;BME280;51921;51.518;-3.188;2023-03-20T12:26:20;101211.33;;;9.89;100.00
60817;BME280;51921;51.518;-3.188;2023-03-20T12:28:46;101204.72;;;10.82;100.00
60817;BME280;51921;51.518;-3.188;2023-03-20T12:31:17;101201.01;;;10.02;100.00
60817;BME280;51921;51.518;-3.188;2023-03-20T12:33:41;101199.74;;;11.19;100.00
60817;BME280;51921;51.518;-3.188;2023-03-20T12:35:58;101202.66;;;11.53;100.00
60817;BME280;51921;51.518;-3.188;2023-03-20T12:38:27;101201.89;;;10.74;100.00
60817;BME280;51921;51.518;-3.188;2023-03-20T12:40:52;101199.28;;;11.38;100.00
60817;BME280;51921;51.518;-3.188;2023-03-20T12:43:17;101195.85;;;11.51;100.00
60817;BME280;51921;51.518;-3.188;2023-03-20T12:45:42;101197.87;;;11.81;100.00
60817;BME280;51921;51.518;-3.188;2023-03-20T12:48:14;101195.12;;;11.44;100.00